createdAt,value
2023-06-27T00:01:46.109Z,71.21
2023-06-27T00:04:12.588Z,71.46
2023-06-27T00:06:42.233Z,71.59
2023-06-27T00:09:10.555Z,71.86
2023-06-27T00:11:40.136Z,72.08
2023-06-27T00:14:07.003Z,72.08
2023-06-27T00:16:34.008Z,72.25
2023-06-27T00:19:04.971Z,72.52
2023-06-27T00:21:35.941Z,72.44
2023-06-27T00:24:02.907Z,72.57
2023-06-27T00:26:29.622Z,72.29
2023-06-27T00:28:56.370Z,72.57
2023-06-27T00:31:23.088Z,72.50
2023-06-27T00:33:49.551Z,72.92
2023-06-27T00:36:16.047Z,72.92
2023-06-27T00:38:42.494Z,72.81
2023-06-27T00:41:08.985Z,73.10
2023-06-27T00:43:35.461Z,72.82
2023-06-27T00:46:07.335Z,73.23
2023-06-27T00:48:33.952Z,73.13
2023-06-27T00:51:00.582Z,73.07
2023-06-27T00:53:27.751Z,73.10
2023-06-27T00:55:54.499Z,73.67
2023-06-27T00:58:21.511Z,74.03
2023-06-27T01:00:49.235Z,73.96
2023-06-27T01:03:16.075Z,73.95
2023-06-27T01:05:43.308Z,74.06
2023-06-27T01:08:18.652Z,73.53
2023-06-27T01:11:07.775Z,73.71
2023-06-27T01:13:41.680Z,73.90
2023-06-27T01:16:09.783Z,73.71
2023-06-27T01:18:38.256Z,74.27
2023-06-27T01:21:09.118Z,74.25
2023-06-27T01:23:50.162Z,74.06
2023-06-27T01:26:17.131Z,74.05
2023-06-27T01:28:43.553Z,73.75
2023-06-27T01:31:30.632Z,73.77
2023-06-27T01:33:56.959Z,73.79
2023-06-27T01:36:37.980Z,73.75
2023-06-27T01:39:10.005Z,74.15
2023-06-27T01:41:39.141Z,73.90
2023-06-27T01:44:07.191Z,74.21
2023-06-27T01:46:34.063Z,74.16
2023-06-27T01:49:01.067Z,74.08
2023-06-27T01:51:27.533Z,73.68
2023-06-27T01:53:53.956Z,73.97
2023-06-27T01:56:20.464Z,73.63
2023-06-27T01:58:47.314Z,73.09
2023-06-27T02:01:13.809Z,73.46
2023-06-27T02:03:40.282Z,73.46
2023-06-27T02:06:06.692Z,73.43
2023-06-27T02:08:33.261Z,73.59
2023-06-27T02:10:59.858Z,74.09
2023-06-27T02:13:26.816Z,73.87
2023-06-27T02:15:53.248Z,74.00
2023-06-27T02:18:19.664Z,73.64
2023-06-27T02:20:46.089Z,73.62
2023-06-27T02:23:12.498Z,73.46
2023-06-27T02:25:39.343Z,74.03
2023-06-27T02:28:06.819Z,73.59
2023-06-27T02:30:33.317Z,73.77
2023-06-27T02:32:59.861Z,73.99
2023-06-27T02:35:26.362Z,73.92
2023-06-27T02:37:52.863Z,73.68
2023-06-27T02:40:19.297Z,73.91
2023-06-27T02:42:45.791Z,73.84
2023-06-27T02:45:12.321Z,74.36
2023-06-27T02:47:39.556Z,73.85
2023-06-27T02:50:06.370Z,73.83
2023-06-27T02:52:32.817Z,73.88
2023-06-27T02:54:59.276Z,73.89
2023-06-27T02:57:25.738Z,74.21
2023-06-27T02:59:52.153Z,74.32
2023-06-27T03:02:18.576Z,74.25
2023-06-27T03:04:47.813Z,74.56
2023-06-27T03:07:14.622Z,74.91
2023-06-27T03:09:41.089Z,74.29
2023-06-27T03:12:08.248Z,74.55
2023-06-27T03:14:34.664Z,74.19
2023-06-27T03:17:01.125Z,74.77
2023-06-27T03:19:42.120Z,74.65
2023-06-27T03:22:09.913Z,74.63
2023-06-27T03:24:36.329Z,74.67
2023-06-27T03:27:02.760Z,74.70
2023-06-27T03:29:29.192Z,75.09
2023-06-27T03:31:58.469Z,74.91
2023-06-27T03:34:25.034Z,74.78
2023-06-27T03:36:51.472Z,74.59
2023-06-27T03:39:17.895Z,74.54
2023-06-27T03:41:44.332Z,74.62
2023-06-27T03:44:10.903Z,74.20
2023-06-27T03:46:37.580Z,73.88
2023-06-27T03:49:04.075Z,73.86
2023-06-27T03:51:30.529Z,74.18
2023-06-27T03:53:56.958Z,73.79
2023-06-27T03:56:23.994Z,74.06
2023-06-27T03:58:50.409Z,73.75
2023-06-27T04:01:16.822Z,73.47
2023-06-27T04:03:43.298Z,73.30
2023-06-27T04:06:09.825Z,73.51
2023-06-27T04:08:36.245Z,73.34
2023-06-27T04:11:02.905Z,73.30
2023-06-27T04:13:29.347Z,73.26
2023-06-27T04:15:55.795Z,72.98
2023-06-27T04:18:22.209Z,73.73
2023-06-27T04:20:48.610Z,73.36
2023-06-27T04:23:15.135Z,73.21
2023-06-27T04:25:45.078Z,73.32
2023-06-27T04:28:11.492Z,73.35
2023-06-27T04:30:37.920Z,73.03
2023-06-27T04:33:04.504Z,73.54
2023-06-27T04:35:31.031Z,73.40
2023-06-27T04:37:57.896Z,73.84
2023-06-27T04:40:24.306Z,73.80
2023-06-27T04:42:50.715Z,73.55
2023-06-27T04:45:17.152Z,73.22
2023-06-27T04:47:44.005Z,73.21
2023-06-27T04:50:15.554Z,73.26
2023-06-27T04:52:42.572Z,72.98
2023-06-27T04:55:09.794Z,73.23
2023-06-27T04:57:36.268Z,73.35
2023-06-27T05:00:06.098Z,73.71
2023-06-27T05:02:32.601Z,73.77
2023-06-27T05:04:59.303Z,73.97
2023-06-27T05:07:25.778Z,74.19
2023-06-27T05:09:52.209Z,73.55
2023-06-27T05:12:18.686Z,73.20
2023-06-27T05:14:45.087Z,72.84
2023-06-27T05:17:11.490Z,72.44
2023-06-27T05:19:37.913Z,72.61
2023-06-27T05:22:04.351Z,72.62
2023-06-27T05:24:30.765Z,72.05
2023-06-27T05:26:57.186Z,72.21
2023-06-27T05:29:26.064Z,71.39
2023-06-27T05:31:53.591Z,71.15
2023-06-27T05:34:20.061Z,70.76
2023-06-27T05:36:46.481Z,70.18
2023-06-27T05:41:03.734Z,69.40
2023-06-27T05:43:30.151Z,69.78
2023-06-27T05:45:56.576Z,68.94
2023-06-27T05:48:22.991Z,69.22
2023-06-27T05:50:49.389Z,68.88
2023-06-27T05:53:15.803Z,69.13
2023-06-27T05:55:42.375Z,69.29
2023-06-27T05:58:09.018Z,69.90
2023-06-27T06:00:35.417Z,69.67
2023-06-27T06:03:01.898Z,69.78
2023-06-27T06:05:28.355Z,69.91
2023-06-27T06:07:55.232Z,70.24
2023-06-27T06:10:23.019Z,69.88
2023-06-27T06:12:49.981Z,70.40
2023-06-27T06:15:18.774Z,69.89
2023-06-27T06:17:45.731Z,69.70
2023-06-27T06:20:12.432Z,70.18
2023-06-27T06:22:39.088Z,69.59
2023-06-27T06:25:06.058Z,69.22
2023-06-27T06:27:32.526Z,68.85
2023-06-27T06:29:59.055Z,68.71
2023-06-27T06:32:25.480Z,68.24
2023-06-27T06:34:52.079Z,68.95
2023-06-27T06:37:18.575Z,68.74
2023-06-27T06:39:45.032Z,68.94
2023-06-27T06:42:11.601Z,67.56
2023-06-27T06:44:38.069Z,67.44
2023-06-27T06:47:04.809Z,67.84
2023-06-27T06:49:31.226Z,67.87
2023-06-27T06:51:57.676Z,67.39
2023-06-27T06:54:24.092Z,66.96
2023-06-27T06:56:50.773Z,66.72
2023-06-27T06:59:17.220Z,66.00
2023-06-27T07:01:43.750Z,66.20
2023-06-27T07:04:10.214Z,66.40
2023-06-27T07:06:36.942Z,66.33
2023-06-27T07:09:03.432Z,67.03
2023-06-27T07:11:29.858Z,66.38
2023-06-27T07:13:56.286Z,64.53
2023-06-27T07:16:22.795Z,65.80
2023-06-27T07:18:49.253Z,65.34
2023-06-27T07:21:15.734Z,65.52
2023-06-27T07:23:42.213Z,64.29
2023-06-27T07:26:08.632Z,64.33
2023-06-27T07:28:35.250Z,64.73
2023-06-27T07:31:01.725Z,63.84
2023-06-27T07:33:28.265Z,62.38
2023-06-27T07:35:54.704Z,61.31
2023-06-27T07:38:21.118Z,61.20
2023-06-27T07:40:47.530Z,61.60
2023-06-27T07:43:13.952Z,61.36
2023-06-27T07:45:40.432Z,61.23
2023-06-27T07:48:07.209Z,61.26
2023-06-27T07:50:33.681Z,59.24
2023-06-27T07:53:00.169Z,58.78
2023-06-27T07:55:26.602Z,58.58
2023-06-27T07:57:53.054Z,57.97
2023-06-27T08:00:19.807Z,58.02
2023-06-27T08:02:46.272Z,57.86
2023-06-27T08:05:12.788Z,58.46
2023-06-27T08:07:39.379Z,56.98
2023-06-27T08:10:06.243Z,57.47
2023-06-27T08:12:32.689Z,58.35
2023-06-27T08:14:59.100Z,57.64
2023-06-27T08:17:25.539Z,57.25
2023-06-27T08:19:51.970Z,56.80
2023-06-27T08:22:18.388Z,54.75
2023-06-27T08:24:44.843Z,54.40
2023-06-27T08:27:11.242Z,54.76
2023-06-27T08:29:37.649Z,57.09
2023-06-27T08:32:04.402Z,57.67
2023-06-27T08:34:33.112Z,57.99
2023-06-27T08:36:59.716Z,57.95
2023-06-27T08:39:27.398Z,57.51
2023-06-27T08:41:53.879Z,57.58
2023-06-27T08:44:20.312Z,57.62
2023-06-27T08:46:48.336Z,56.90
2023-06-27T08:49:23.323Z,56.41
2023-06-27T08:51:51.529Z,55.87
2023-06-27T08:54:24.379Z,56.08
2023-06-27T08:56:51.971Z,56.64
2023-06-27T08:59:20.983Z,55.92
2023-06-27T09:01:49.114Z,55.80
2023-06-27T09:04:16.321Z,55.78
2023-06-27T09:06:42.825Z,56.70
2023-06-27T09:09:09.476Z,60.96
2023-06-27T09:11:36.007Z,62.39
2023-06-27T09:14:03.071Z,62.53
2023-06-27T09:18:08.829Z,62.75
2023-06-27T09:20:35.443Z,63.60
2023-06-27T09:23:06.600Z,64.17
2023-06-27T09:25:33.144Z,60.26
2023-06-27T09:28:13.912Z,60.83
2023-06-27T09:30:40.613Z,59.50
2023-06-27T09:33:07.245Z,59.87
2023-06-27T09:35:59.534Z,60.51
2023-06-27T09:41:07.392Z,57.92
2023-06-27T09:43:36.412Z,59.61
2023-06-27T09:46:05.104Z,60.55
2023-06-27T09:48:31.740Z,58.54
2023-06-27T09:51:02.082Z,58.10
2023-06-27T09:56:29.005Z,58.09
2023-06-27T09:58:58.599Z,57.16
2023-06-27T10:01:28.542Z,57.51
2023-06-27T10:03:55.053Z,56.80
2023-06-27T10:06:21.677Z,55.92
2023-06-27T10:08:48.178Z,55.26
2023-06-27T10:12:15.475Z,54.20
2023-06-27T10:14:44.456Z,55.76
2023-06-27T10:17:19.694Z,57.44
2023-06-27T10:19:46.687Z,58.70
2023-06-27T10:22:18.011Z,59.78
2023-06-27T10:24:46.439Z,61.63
2023-06-27T10:27:16.770Z,61.52
2023-06-27T10:29:43.706Z,62.28
2023-06-27T10:32:10.196Z,62.57
2023-06-27T10:34:41.839Z,60.44
2023-06-27T10:37:13.144Z,58.41
2023-06-27T10:39:41.251Z,58.23
2023-06-27T10:42:16.878Z,58.25
2023-06-27T10:44:55.447Z,54.45
2023-06-27T10:47:21.887Z,55.37
2023-06-27T10:49:49.309Z,57.23
2023-06-27T10:52:24.135Z,53.36
2023-06-27T10:55:16.226Z,53.41
2023-06-27T10:57:48.912Z,53.84
2023-06-27T11:00:25.971Z,51.12
2023-06-27T11:02:55.911Z,50.54
2023-06-27T11:05:55.161Z,48.15
2023-06-27T11:08:22.278Z,46.79
2023-06-27T11:11:08.610Z,46.73
2023-06-27T11:13:45.944Z,45.53
2023-06-27T11:16:13.274Z,44.57
2023-06-27T11:18:39.889Z,41.95
2023-06-27T11:21:06.341Z,40.85
2023-06-27T11:23:32.818Z,40.37
2023-06-27T11:26:00.203Z,40.59
2023-06-27T11:28:26.859Z,40.65
2023-06-27T11:31:00.766Z,40.53
2023-06-27T11:33:27.517Z,39.76
2023-06-27T11:35:57.267Z,41.08
2023-06-27T11:38:26.540Z,39.85
2023-06-27T11:40:53.512Z,36.69
2023-06-27T11:43:20.301Z,38.27
2023-06-27T11:45:51.282Z,37.61
2023-06-27T11:48:17.873Z,37.35
2023-06-27T11:51:05.172Z,37.26
2023-06-27T11:53:31.658Z,36.99
2023-06-27T11:58:36.574Z,37.01
2023-06-27T12:01:05.542Z,36.34
2023-06-27T12:03:34.294Z,36.00
2023-06-27T12:06:00.849Z,37.41
2023-06-27T12:08:34.911Z,35.39
2023-06-27T12:11:04.121Z,36.54
2023-06-27T12:13:36.812Z,32.66
